createdAt,value
2023-04-02T00:00:17.424Z,8.27
2023-04-02T00:03:03.975Z,8.37
2023-04-02T00:05:52.174Z,8.40
2023-04-02T00:08:39.056Z,8.51
2023-04-02T00:11:06.803Z,8.48
2023-04-02T00:13:41.277Z,8.54
2023-04-02T00:16:13.861Z,8.48
2023-04-02T00:18:46.704Z,8.43
2023-04-02T00:21:27.448Z,8.35
2023-04-02T00:23:56.105Z,8.36
2023-04-02T00:26:36.827Z,8.32
2023-04-02T00:29:05.832Z,8.34
2023-04-02T00:31:34.583Z,8.34
2023-04-02T00:34:05.031Z,8.35
2023-04-02T00:36:34.322Z,8.35
2023-04-02T00:39:04.941Z,8.36
2023-04-02T00:41:36.326Z,8.40
2023-04-02T00:44:03.808Z,8.41
2023-04-02T00:46:47.326Z,8.48
2023-04-02T00:49:26.682Z,8.52
2023-04-02T00:52:00.540Z,8.56
2023-04-02T00:54:31.394Z,8.63
2023-04-02T00:56:59.171Z,8.65
2023-04-02T00:59:36.921Z,8.66
2023-04-02T01:02:18.989Z,8.68
2023-04-02T01:05:00.002Z,8.55
2023-04-02T01:07:43.938Z,8.66
2023-04-02T01:10:18.072Z,8.73
2023-04-02T01:12:51.069Z,8.74
2023-04-02T01:15:36.371Z,8.78
2023-04-02T01:18:31.477Z,8.81
2023-04-02T01:21:07.838Z,8.75
2023-04-02T01:24:00.353Z,8.67
2023-04-02T01:26:47.904Z,8.68
2023-04-02T01:29:23.509Z,8.67
2023-04-02T01:31:53.524Z,8.51
2023-04-02T01:34:25.169Z,8.30
2023-04-02T01:37:44.941Z,8.12
2023-04-02T01:40:31.370Z,7.96
2023-04-02T01:43:28.435Z,7.80
2023-04-02T01:45:58.584Z,7.72
2023-04-02T01:48:30.171Z,7.67
2023-04-02T01:50:59.966Z,7.59
2023-04-02T01:53:30.815Z,7.43
2023-04-02T01:56:00.907Z,7.32
2023-04-02T01:58:32.483Z,7.34
2023-04-02T02:01:09.438Z,6.94
2023-04-02T02:03:41.141Z,6.96
2023-04-02T02:06:12.924Z,6.96
2023-04-02T02:08:47.672Z,6.74
2023-04-02T02:11:18.967Z,6.74
2023-04-02T02:13:48.156Z,6.73
2023-04-02T02:16:18.154Z,6.71
2023-04-02T02:18:53.280Z,6.54
2023-04-02T02:21:32.360Z,6.59
2023-04-02T02:24:00.400Z,6.58
2023-04-02T02:26:29.669Z,6.66
2023-04-02T02:28:58.156Z,6.69
2023-04-02T02:31:33.238Z,6.60
2023-04-02T02:34:15.316Z,6.69
2023-04-02T02:36:55.072Z,6.72
2023-04-02T02:39:32.312Z,6.75
2023-04-02T02:42:14.590Z,6.77
2023-04-02T02:44:46.762Z,6.80
2023-04-02T02:47:34.205Z,6.72
2023-04-02T02:50:08.017Z,6.81
2023-04-02T02:52:38.200Z,6.86
2023-04-02T02:55:22.637Z,6.60
2023-04-02T02:58:04.467Z,6.89
2023-04-02T03:00:37.867Z,6.92
2023-04-02T03:03:17.057Z,7.02
2023-04-02T03:05:45.030Z,7.01
2023-04-02T03:08:26.653Z,6.91
2023-04-02T03:11:01.183Z,6.76
2023-04-02T03:13:35.738Z,6.58
2023-04-02T03:16:46.372Z,6.66
2023-04-02T03:19:43.839Z,6.59
2023-04-02T03:22:21.185Z,6.50
2023-04-02T03:25:02.354Z,6.26
2023-04-02T03:27:36.744Z,6.31
2023-04-02T03:30:41.375Z,6.27
2023-04-02T03:33:21.870Z,6.24
2023-04-02T03:35:56.629Z,6.18
2023-04-02T03:38:37.170Z,6.08
2023-04-02T03:41:30.952Z,6.11
2023-04-02T03:44:07.802Z,6.06
2023-04-02T03:46:42.171Z,5.79
2023-04-02T03:49:20.037Z,5.95
2023-04-02T03:51:59.459Z,5.98
2023-04-02T03:54:27.723Z,5.94
2023-04-02T03:56:55.059Z,5.93
2023-04-02T03:59:50.808Z,5.81
2023-04-02T04:02:24.222Z,5.79
2023-04-02T04:04:53.637Z,5.67
2023-04-02T04:07:32.601Z,5.71
2023-04-02T04:10:01.578Z,5.70
2023-04-02T04:12:34.941Z,5.65
2023-04-02T04:15:12.401Z,5.54
2023-04-02T04:18:04.317Z,5.72
2023-04-02T04:20:46.061Z,5.68
2023-04-02T04:23:30.720Z,5.59
2023-04-02T04:26:09.731Z,5.70
2023-04-02T04:28:58.436Z,5.69
2023-04-02T04:31:34.672Z,5.69
2023-04-02T04:34:10.452Z,5.68
2023-04-02T04:36:55.760Z,5.69
2023-04-02T04:39:34.902Z,5.71
2023-04-02T04:42:05.167Z,5.68
2023-04-02T04:44:53.390Z,5.74
2023-04-02T04:47:31.084Z,5.78
2023-04-02T04:50:14.287Z,5.80
2023-04-02T04:52:44.037Z,5.88
2023-04-02T04:55:43.724Z,5.99
2023-04-02T04:58:26.011Z,6.06
2023-04-02T05:01:05.810Z,6.15
2023-04-02T05:03:52.100Z,6.25
2023-04-02T05:06:36.562Z,6.33
2023-04-02T05:09:18.794Z,6.42
2023-04-02T05:11:54.623Z,6.34
2023-04-02T05:14:37.749Z,6.57
2023-04-02T05:17:22.412Z,6.62
2023-04-02T05:20:06.286Z,6.63
2023-04-02T05:22:42.990Z,6.56
2023-04-02T05:25:15.592Z,6.73
2023-04-02T05:28:10.333Z,6.84
2023-04-02T05:30:38.576Z,6.91
2023-04-02T05:33:18.748Z,7.03
2023-04-02T05:35:49.606Z,7.06
2023-04-02T05:38:23.889Z,7.13
2023-04-02T05:40:59.618Z,7.34
2023-04-02T05:43:28.507Z,7.26
2023-04-02T05:45:59.533Z,7.57
2023-04-02T05:48:34.944Z,7.79
2023-04-02T05:51:07.993Z,7.97
2023-04-02T05:53:45.300Z,8.08
2023-04-02T05:56:37.524Z,8.17
2023-04-02T05:59:11.591Z,8.27
2023-04-02T06:01:54.207Z,8.44
2023-04-02T06:04:36.496Z,8.53
2023-04-02T06:07:23.532Z,8.62
2023-04-02T06:10:04.990Z,8.62
2023-04-02T06:12:47.462Z,8.78
2023-04-02T06:15:18.486Z,8.82
2023-04-02T06:18:09.471Z,9.02
2023-04-02T06:20:39.948Z,8.95
2023-04-02T06:23:14.823Z,8.96
2023-04-02T06:25:48.260Z,9.19
2023-04-02T06:28:20.316Z,9.30
2023-04-02T06:30:58.165Z,9.26
2023-04-02T06:33:25.678Z,9.38
2023-04-02T06:35:54.763Z,9.44
2023-04-02T06:38:31.338Z,9.38
2023-04-02T06:41:03.110Z,9.50
2023-04-02T06:43:49.461Z,9.62
2023-04-02T06:46:54.215Z,9.65
2023-04-02T06:49:46.018Z,9.65
2023-04-02T06:52:33.379Z,9.86
2023-04-02T06:55:21.712Z,9.84
2023-04-02T06:57:49.150Z,10.02
2023-04-02T07:00:38.691Z,10.10
2023-04-02T07:03:32.343Z,10.03
2023-04-02T07:06:05.860Z,10.13
2023-04-02T07:08:34.447Z,10.21
2023-04-02T07:11:01.446Z,10.25
2023-04-02T07:13:29.221Z,10.18
2023-04-02T07:15:56.752Z,10.13
2023-04-02T07:18:34.191Z,10.19
2023-04-02T07:21:05.196Z,10.38
2023-04-02T07:23:32.283Z,10.63
2023-04-02T07:25:59.559Z,10.86
2023-04-02T07:28:26.644Z,10.99
2023-04-02T07:30:54.290Z,11.08
2023-04-02T07:33:24.555Z,11.39
2023-04-02T07:35:53.599Z,11.48
2023-04-02T07:38:20.781Z,11.69
2023-04-02T07:40:48.167Z,11.94
2023-04-02T07:43:15.547Z,12.09
2023-04-02T07:45:42.458Z,12.09
2023-04-02T07:48:12.577Z,11.96
2023-04-02T07:50:39.669Z,12.10
2023-04-02T07:53:08.930Z,12.18
2023-04-02T07:55:36.448Z,12.39
2023-04-02T07:58:04.199Z,12.59
2023-04-02T08:00:31.238Z,12.68
2023-04-02T08:02:58.373Z,12.70
2023-04-02T08:05:26.991Z,12.80
2023-04-02T08:07:57.272Z,12.66
2023-04-02T08:10:24.798Z,12.55
2023-04-02T08:12:51.735Z,12.60
2023-04-02T08:15:19.231Z,12.80
2023-04-02T08:17:46.764Z,12.78
2023-04-02T08:20:18.854Z,12.84
2023-04-02T08:22:47.270Z,13.00
2023-04-02T08:25:14.746Z,13.30
2023-04-02T08:27:42.564Z,13.41
2023-04-02T08:30:12.688Z,13.74
2023-04-02T08:32:41.266Z,13.94
2023-04-02T08:35:11.120Z,14.27
2023-04-02T08:37:38.340Z,14.15
2023-04-02T08:40:10.075Z,14.67
2023-04-02T08:43:03.495Z,14.93
2023-04-02T08:45:49.045Z,15.21
2023-04-02T08:48:16.874Z,15.16
2023-04-02T08:50:44.886Z,14.82
2023-04-02T08:53:34.865Z,15.10
2023-04-02T08:56:17.794Z,15.23
2023-04-02T08:58:48.578Z,15.67
2023-04-02T09:01:28.114Z,15.89
2023-04-02T09:03:58.750Z,16.24
2023-04-02T09:06:28.254Z,16.10
2023-04-02T09:08:57.059Z,16.21
2023-04-02T09:11:31.612Z,16.23
2023-04-02T09:14:01.945Z,16.44
2023-04-02T09:16:44.101Z,16.81
2023-04-02T09:19:18.747Z,16.76
2023-04-02T09:21:55.129Z,16.91
2023-04-02T09:24:21.989Z,17.20
2023-04-02T09:26:48.951Z,17.16
2023-04-02T09:29:28.518Z,16.92
2023-04-02T09:32:08.033Z,16.62
2023-04-02T09:34:36.700Z,16.68
2023-04-02T09:37:19.714Z,16.57
2023-04-02T09:39:47.257Z,16.57
2023-04-02T09:42:35.366Z,16.45
2023-04-02T09:45:13.180Z,16.32
2023-04-02T09:47:42.464Z,16.55
2023-04-02T09:50:22.017Z,16.52
2023-04-02T09:52:50.150Z,16.54
2023-04-02T09:55:20.431Z,16.42
2023-04-02T09:57:49.659Z,16.46
2023-04-02T10:00:26.025Z,16.47
2023-04-02T10:03:18.005Z,16.70
2023-04-02T10:05:46.771Z,16.53
2023-04-02T10:08:24.865Z,16.29
2023-04-02T10:10:56.882Z,16.28
2023-04-02T10:13:41.127Z,16.30
2023-04-02T10:16:34.195Z,16.45
2023-04-02T10:19:14.901Z,16.70
2023-04-02T10:21:49.152Z,16.85
2023-04-02T10:24:17.307Z,16.28
2023-04-02T10:27:02.765Z,15.51
2023-04-02T10:29:44.786Z,15.38
2023-04-02T10:32:19.133Z,15.40
2023-04-02T10:34:58.134Z,15.41
2023-04-02T10:37:43.255Z,15.47
2023-04-02T10:40:29.492Z,15.58
2023-04-02T10:43:07.480Z,15.90
2023-04-02T10:45:54.681Z,16.28
2023-04-02T10:48:30.771Z,16.42
2023-04-02T10:51:06.163Z,16.12
2023-04-02T10:53:47.445Z,15.67
2023-04-02T10:56:15.491Z,15.57
2023-04-02T10:58:58.955Z,15.40
2023-04-02T11:01:29.943Z,15.14
2023-04-02T11:04:07.029Z,15.20
2023-04-02T11:07:06.971Z,15.37
2023-04-02T11:09:45.720Z,15.44
2023-04-02T11:12:52.813Z,15.42
2023-04-02T11:15:20.822Z,15.53
2023-04-02T11:17:48.526Z,15.60
2023-04-02T11:20:44.101Z,15.60
2023-04-02T11:23:18.987Z,15.59
2023-04-02T11:25:47.426Z,15.74
2023-04-02T11:28:30.506Z,15.60
2023-04-02T11:30:58.553Z,15.60
2023-04-02T11:33:38.200Z,15.73
2023-04-02T11:36:44.331Z,15.89
2023-04-02T11:39:17.340Z,15.76
2023-04-02T11:42:04.379Z,15.90
2023-04-02T11:44:31.657Z,15.90
2023-04-02T11:47:19.739Z,16.13
2023-04-02T11:49:56.288Z,16.25
2023-04-02T11:52:31.041Z,16.19
2023-04-02T11:54:59.759Z,16.12
2023-04-02T11:57:45.402Z,16.44
2023-04-02T12:00:13.375Z,16.55
2023-04-02T12:03:08.329Z,16.69
2023-04-02T12:06:33.312Z,16.69
2023-04-02T12:09:22.624Z,16.49
2023-04-02T12:11:55.712Z,16.52
2023-04-02T12:14:37.861Z,16.70
2023-04-02T12:17:34.181Z,16.55
2023-04-02T12:20:08.823Z,16.59
2023-04-02T12:22:46.104Z,16.40
2023-04-02T12:25:19.144Z,16.30
2023-04-02T12:27:49.132Z,16.31
2023-04-02T12:30:22.057Z,16.36
2023-04-02T12:32:50.379Z,16.16
2023-04-02T12:35:32.623Z,16.34
2023-04-02T12:37:59.690Z,16.53
2023-04-02T12:40:27.074Z,16.66
2023-04-02T12:42:54.781Z,16.89
2023-04-02T12:45:27.864Z,16.73
2023-04-02T12:47:57.889Z,16.68
2023-04-02T12:50:25.015Z,16.66
2023-04-02T12:52:55.071Z,16.70
2023-04-02T12:55:26.954Z,16.58
2023-04-02T12:57:58.481Z,16.57
2023-04-02T13:00:25.779Z,16.46
2023-04-02T13:03:05.180Z,16.46
2023-04-02T13:05:41.396Z,16.41
2023-04-02T13:08:33.194Z,16.70
2023-04-02T13:11:02.803Z,16.61
2023-04-02T13:13:36.118Z,16.85
2023-04-02T13:16:19.981Z,16.81
2023-04-02T13:18:49.330Z,16.43
2023-04-02T13:21:19.697Z,16.56
2023-04-02T13:23:47.393Z,16.59
2023-04-02T13:26:19.442Z,16.51
2023-04-02T13:28:56.674Z,16.39
2023-04-02T13:31:23.906Z,16.36
2023-04-02T13:33:51.748Z,16.38
2023-04-02T13:36:18.758Z,16.49
2023-04-02T13:39:05.226Z,16.66
2023-04-02T13:41:39.353Z,16.79
2023-04-02T13:44:06.618Z,16.76
2023-04-02T13:46:34.963Z,16.85
2023-04-02T13:49:02.571Z,16.04
2023-04-02T13:51:37.861Z,16.74
2023-04-02T13:54:13.976Z,16.68
2023-04-02T13:56:41.345Z,16.40
2023-04-02T13:59:08.692Z,16.55
2023-04-02T14:01:35.905Z,16.84
2023-04-02T14:04:03.590Z,16.97
2023-04-02T14:06:36.531Z,16.95
2023-04-02T14:09:25.011Z,17.09
2023-04-02T14:11:55.086Z,16.99
2023-04-02T14:14:41.581Z,17.24
2023-04-02T14:17:22.656Z,17.16
2023-04-02T14:20:00.177Z,17.10
2023-04-02T14:22:43.746Z,17.00
2023-04-02T14:25:36.087Z,17.06
2023-04-02T14:28:38.043Z,17.00
2023-04-02T14:31:32.668Z,17.12
2023-04-02T14:34:15.764Z,17.00
2023-04-02T14:37:04.666Z,16.96
2023-04-02T14:39:45.966Z,16.80
2023-04-02T14:42:18.468Z,16.83
2023-04-02T14:45:05.516Z,16.59
2023-04-02T14:47:45.280Z,16.66
2023-04-02T14:50:33.509Z,16.52
2023-04-02T14:53:08.625Z,16.38
2023-04-02T14:55:46.901Z,16.47
2023-04-02T14:58:23.380Z,16.28
2023-04-02T15:01:14.155Z,16.13
2023-04-02T15:03:48.766Z,16.04
2023-04-02T15:06:21.621Z,15.98
2023-04-02T15:09:06.644Z,16.05
2023-04-02T15:11:45.844Z,16.23
2023-04-02T15:14:21.270Z,16.25
2023-04-02T15:16:48.366Z,16.29
2023-04-02T15:19:18.044Z,16.37
2023-04-02T15:22:12.505Z,16.38
2023-04-02T15:24:59.691Z,16.46
2023-04-02T15:27:45.276Z,16.43
2023-04-02T15:30:23.547Z,16.45
2023-04-02T15:32:51.173Z,18.00
2023-04-02T15:35:22.242Z,19.99
2023-04-02T15:38:05.107Z,21.37
2023-04-02T15:40:50.073Z,21.90
2023-04-02T15:43:26.357Z,21.81
2023-04-02T15:46:11.584Z,21.80
2023-04-02T15:48:47.739Z,22.34
2023-04-02T15:51:33.520Z,22.66
2023-04-02T15:54:26.966Z,22.26
2023-04-02T15:57:22.431Z,21.76
2023-04-02T15:59:55.635Z,21.93
2023-04-02T16:02:31.703Z,22.65
2023-04-02T16:05:12.236Z,23.12
2023-04-02T16:07:48.167Z,22.85
2023-04-02T16:10:42.567Z,21.02
2023-04-02T16:13:29.362Z,21.21
2023-04-02T16:16:07.322Z,21.36
2023-04-02T16:18:53.193Z,20.78
2023-04-02T16:21:28.699Z,21.06
2023-04-02T16:23:55.993Z,21.11
2023-04-02T16:26:35.447Z,19.80
2023-04-02T16:29:15.463Z,18.34
2023-04-02T16:32:02.310Z,17.49
2023-04-02T16:35:15.012Z,16.70
2023-04-02T16:37:55.733Z,16.15
2023-04-02T16:40:41.534Z,15.69
2023-04-02T16:43:19.220Z,15.41
2023-04-02T16:46:11.915Z,15.28
2023-04-02T16:49:17.460Z,15.09
2023-04-02T16:52:02.964Z,14.89
2023-04-02T16:54:39.105Z,14.78
2023-04-02T16:57:12.028Z,14.59
2023-04-02T16:59:57.627Z,14.45
2023-04-02T17:02:49.757Z,14.36
2023-04-02T17:05:26.191Z,14.26
2023-04-02T17:08:05.147Z,14.12
2023-04-02T17:10:54.827Z,14.03
2023-04-02T17:13:41.998Z,13.91
2023-04-02T17:16:12.166Z,13.75
2023-04-02T17:18:42.034Z,13.50
2023-04-02T17:21:14.949Z,13.53
2023-04-02T17:24:17.338Z,13.51
2023-04-02T17:26:48.224Z,13.42
2023-04-02T17:29:20.338Z,13.33
2023-04-02T17:31:49.648Z,13.21
2023-04-02T17:34:18.514Z,13.11
2023-04-02T17:37:15.255Z,13.11
2023-04-02T17:40:21.077Z,12.90
2023-04-02T17:43:12.451Z,12.94
2023-04-02T17:45:52.446Z,12.90
2023-04-02T17:48:26.867Z,12.79
2023-04-02T17:51:19.121Z,12.70
2023-04-02T17:53:58.573Z,12.69
2023-04-02T17:56:26.692Z,12.65
2023-04-02T17:59:06.102Z,12.55
2023-04-02T18:01:54.785Z,12.50
2023-04-02T18:04:53.333Z,12.43
2023-04-02T18:07:29.247Z,12.40
2023-04-02T18:10:25.738Z,12.35
2023-04-02T18:13:07.428Z,12.30
2023-04-02T18:15:48.695Z,12.29
2023-04-02T18:18:27.908Z,12.30
2023-04-02T18:21:30.733Z,12.31
2023-04-02T18:24:22.484Z,12.33
2023-04-02T18:27:11.422Z,12.33
2023-04-02T18:30:06.465Z,12.36
2023-04-02T18:32:42.357Z,12.40
2023-04-02T18:35:29.858Z,12.42
2023-04-02T18:38:29.416Z,12.40
2023-04-02T18:41:01.869Z,12.40
2023-04-02T18:43:51.149Z,12.41
2023-04-02T18:46:27.316Z,12.40
2023-04-02T18:49:26.670Z,12.31
2023-04-02T18:52:03.100Z,12.21
2023-04-02T18:54:38.046Z,12.20
2023-04-02T18:57:15.173Z,12.07
2023-04-02T18:59:51.200Z,12.08
2023-04-02T19:02:49.229Z,12.05
2023-04-02T19:05:28.620Z,11.99
2023-04-02T19:08:19.485Z,11.96
2023-04-02T19:10:53.062Z,11.81
2023-04-02T19:13:21.605Z,11.84
2023-04-02T19:15:55.464Z,11.77
2023-04-02T19:18:44.871Z,11.70
2023-04-02T19:21:18.048Z,11.64
2023-04-02T19:24:18.687Z,11.58
2023-04-02T19:27:08.422Z,11.47
2023-04-02T19:30:11.610Z,11.43
2023-04-02T19:32:51.339Z,11.35
2023-04-02T19:35:28.797Z,11.30
2023-04-02T19:38:13.560Z,11.24
2023-04-02T19:40:53.700Z,11.24
2023-04-02T19:43:20.924Z,11.17
2023-04-02T19:45:49.241Z,11.03
2023-04-02T19:48:20.628Z,11.06
2023-04-02T19:50:49.226Z,10.94
2023-04-02T19:53:16.732Z,10.97
2023-04-02T19:55:44.556Z,10.91
2023-04-02T19:58:32.861Z,10.91
2023-04-02T20:01:00.804Z,10.88
2023-04-02T20:03:28.050Z,10.78
2023-04-02T20:05:55.059Z,10.79
2023-04-02T20:08:22.104Z,10.77
2023-04-02T20:10:49.296Z,10.77
2023-04-02T20:13:16.276Z,10.74
2023-04-02T20:15:43.297Z,10.71
2023-04-02T20:18:11.001Z,10.70
2023-04-02T20:20:39.535Z,10.68
2023-04-02T20:23:06.551Z,10.63
2023-04-02T20:25:33.329Z,10.60
2023-04-02T20:28:01.144Z,10.57
2023-04-02T20:30:28.065Z,10.54
2023-04-02T20:32:58.556Z,10.51
2023-04-02T20:35:26.561Z,10.46
2023-04-02T20:37:53.447Z,10.46
2023-04-02T20:40:20.377Z,10.33
2023-04-02T20:42:47.328Z,10.37
2023-04-02T20:45:14.202Z,10.35
2023-04-02T20:47:41.469Z,10.23
2023-04-02T20:50:09.014Z,10.26
2023-04-02T20:52:35.861Z,10.20
2023-04-02T20:55:03.597Z,10.10
2023-04-02T20:57:30.748Z,10.13
2023-04-02T20:59:58.966Z,10.01
2023-04-02T21:02:26.027Z,10.04
2023-04-02T21:04:53.191Z,10.05
2023-04-02T21:07:20.486Z,9.97
2023-04-02T21:09:47.573Z,9.91
2023-04-02T21:12:14.606Z,9.52
2023-04-02T21:14:41.711Z,9.94
2023-04-02T21:17:09.112Z,9.95
2023-04-02T21:19:36.257Z,9.94
2023-04-02T21:22:03.660Z,9.91
2023-04-02T21:24:30.977Z,9.83
2023-04-02T21:26:58.031Z,9.80
2023-04-02T21:29:25.099Z,9.81
2023-04-02T21:31:53.143Z,9.75
2023-04-02T21:34:20.097Z,9.71
2023-04-02T21:36:48.828Z,9.69
2023-04-02T21:39:23.880Z,9.66
2023-04-02T21:41:53.252Z,9.53
2023-04-02T21:44:22.433Z,9.58
2023-04-02T21:46:51.816Z,9.47
2023-04-02T21:49:22.752Z,9.51
2023-04-02T21:51:51.765Z,9.47
2023-04-02T21:54:18.983Z,9.44
2023-04-02T21:56:46.992Z,9.35
2023-04-02T21:59:16.110Z,9.34
2023-04-02T22:01:54.504Z,9.34
2023-04-02T22:04:26.483Z,8.88
2023-04-02T22:06:54.426Z,8.08
2023-04-02T22:09:23.876Z,9.23
2023-04-02T22:11:54.463Z,9.19
2023-04-02T22:14:22.955Z,8.42
2023-04-02T22:16:53.662Z,7.66
2023-04-02T22:19:21.374Z,8.16
2023-04-02T22:21:48.932Z,9.05
2023-04-02T22:24:25.582Z,9.04
2023-04-02T22:26:53.930Z,8.25
2023-04-02T22:29:21.672Z,8.41
2023-04-02T22:31:52.102Z,8.82
2023-04-02T22:34:19.329Z,8.15
2023-04-02T22:36:46.216Z,8.48
2023-04-02T22:39:13.423Z,8.89
2023-04-02T22:41:40.448Z,8.83
2023-04-02T22:44:07.741Z,8.74
2023-04-02T22:46:34.872Z,8.84
2023-04-02T22:49:02.201Z,8.80
2023-04-02T22:51:29.472Z,8.71
2023-04-02T22:53:57.059Z,8.77
2023-04-02T22:56:28.769Z,8.75
2023-04-02T22:58:55.933Z,8.62
2023-04-02T23:01:30.061Z,8.65
2023-04-02T23:04:16.150Z,8.69
2023-04-02T23:06:43.137Z,8.63
2023-04-02T23:09:10.405Z,8.55
2023-04-02T23:11:37.460Z,8.60
2023-04-02T23:14:04.408Z,8.57
2023-04-02T23:16:31.549Z,8.53
2023-04-02T23:18:58.655Z,8.44
2023-04-02T23:21:26.522Z,8.48
2023-04-02T23:23:53.845Z,8.43
2023-04-02T23:26:27.173Z,8.41
2023-04-02T23:28:54.889Z,8.36
2023-04-02T23:31:22.823Z,8.36
2023-04-02T23:33:51.547Z,8.33
2023-04-02T23:36:27.887Z,8.30
2023-04-02T23:38:57.434Z,8.23
2023-04-02T23:41:27.181Z,8.17
2023-04-02T23:43:55.399Z,8.11
2023-04-02T23:46:22.965Z,8.17
2023-04-02T23:48:51.252Z,8.10
2023-04-02T23:51:18.798Z,8.10
2023-04-02T23:53:45.698Z,8.08
2023-04-02T23:56:12.720Z,8.05
2023-04-02T23:58:39.582Z,8.01
